Terminal Aerodrome Forecast
Issued by NWS Paducah, KY

Home | Current Version | Previous Version | Graphics & Text | Print | Product List | Glossary On
Versions: 1 2 3 4 5 6 7 8 9 10 11 12 13 14 15 16
000
FTUS43 KPAH 250500 CCA
TAFEVV
TAF COR
KEVV 250536Z 2506/2606 20004KT P6SM BKN200
     FM251500 18008KT 2SM RA BR OVC009
     FM251900 23007KT 2SM -RA BR OVC008
     FM260100 32014G22KT 3SM -RA OVC009=

USA.gov is the U.S. government's official web portal to all federal, state and local government web resources and services.